Etusivu
METAR-TAF:

METAR-TAF

Lentoasemat :

El Borma, Tunisia

Leveyspiiri: 31-41N, Pituuspiiri: 009-10E, korkeus merenpinnasta: 258 m

Tämänhetkinen sää

Tämä raportti tehtiin 34 minuuttia sitten, kello 19.00 UTC
Tuuli 5 kn idästä
Lämpötila 40°C
Kosteus 5%
Ilmanpaine 1011 hPa

METAR: DTTR 201900Z AUTO 10005KT NCD 40/M06 Q1011

Aika: 20:34 (19:34 UTC)

Sääennuste

Tämä raportti tehtiin 1 tunti ja 34 minuuttia sitten, kello 18.00 UTC
Ennuste voimassa 20. päivästä klo 19 UTC - 21. päivään klo 04 UTC
Tuuli 8 kn idästä/kaakosta
Näkyvyys 10 km tai enemmän
ei pilviä alle 1500 m:ssä eikä cumulonimbus-pilviä
Tulossa
20. päivästä klo 21 UTC - 20. päivään klo 23 UTC
Tuuli 15 kn idästä
Muutamia pilviä 3000 ft:n korkeudessa

TAF: DTTR 201800Z 2019/2104 12008KT CAVOK BECMG 2021/2023 09015KT9999 FEW030

Säähavainnot ja -ennusteet yli 4000 lentoasemalta (METAR- ja TAF-raportit).

Käytössä olevat sääasemat on merkitty karttaan keltaisilla ja punaisilla pisteillä.

Aseta hiiri pisteen päälle nähdäksesi sääaseman nimen.

Klikkaa sitten nähdäksesi säähavainnot ja -ennusteet.

Kartan vaihtaminen: klikkaa mustalla rastilla varustettuja vihreitä pisteitä, niin voit zoomata sisään; viivalla varustettua vihreää pistettä, niin voit zoomata ulos tai vihreitä nuolia, niin pääset viereisille kartoille.


METAR-TAF: